Time;durP1;ratioP1;P1;durP2;ratioP2;P2;SDS_P1;SDS_P2;PMS_P1;PMS_P2;Temp;Humidity;BMP_temperature;BMP_pressure;BME280_temperature;BME280_humidity;BME280_pressure;Samples;Min_cycle;Max_cycle;Signal;HPM_P1;HPM_P2
2021/01/11 00:02:13;;;;;;;13.07;7.30;;;;;;;8.97;68.13;101206.16;5070275;28;20082;-79
2021/01/11 00:04:39;;;;;;;11.98;5.72;;;;;;;8.84;69.12;101210.28;5072560;28;20077;-79
2021/01/11 00:07:05;;;;;;;10.90;6.38;;;;;;;8.95;68.65;101210.63;5072297;28;20111;-79
2021/01/11 00:09:30;;;;;;;12.82;6.40;;;;;;;8.87;68.90;101207.53;5071671;28;20103;-79
2021/01/11 00:11:58;;;;;;;8.55;5.55;;;;;;;8.74;69.79;101207.25;5071895;28;20036;-79
2021/01/11 00:14:23;;;;;;;11.45;6.85;;;;;;;8.84;69.47;101218.16;5072018;28;20031;-79
2021/01/11 00:16:48;;;;;;;10.48;6.18;;;;;;;8.73;70.24;101213.44;5070545;28;20086;-79
2021/01/11 00:19:14;;;;;;;9.13;5.68;;;;;;;8.80;70.59;101213.97;5071870;28;20028;-78
2021/01/11 00:21:39;;;;;;;8.45;5.47;;;;;;;9.01;69.39;101206.88;5071741;28;20111;-79
2021/01/11 00:24:05;;;;;;;8.35;5.78;;;;;;;9.19;69.31;101202.50;5072253;28;20085;-79
2021/01/11 00:26:30;;;;;;;10.70;5.88;;;;;;;8.91;70.05;101211.72;5070655;28;20021;-79
2021/01/11 00:28:56;;;;;;;9.90;6.75;;;;;;;8.88;70.09;101206.59;5070966;28;20079;-79
2021/01/11 00:31:23;;;;;;;12.48;7.60;;;;;;;8.80;70.91;101211.38;5071364;28;20035;-79
2021/01/11 00:33:49;;;;;;;8.57;6.32;;;;;;;8.92;70.67;101210.78;5071354;28;20065;-79
2021/01/11 00:36:15;;;;;;;11.13;5.10;;;;;;;9.25;68.73;101208.28;5071836;28;20383;-78
2021/01/11 00:38:40;;;;;;;10.88;5.57;;;;;;;9.16;69.39;101207.88;5071665;28;20029;-78
2021/01/11 00:41:06;;;;;;;14.15;6.93;;;;;;;9.34;69.02;101209.59;5071910;28;20085;-78
2021/01/11 00:43:31;;;;;;;14.45;6.40;;;;;;;9.23;69.03;101204.03;5071518;28;20417;-80
2021/01/11 00:45:56;;;;;;;11.38;5.65;;;;;;;9.02;70.18;101201.53;5071892;28;20391;-80
2021/01/11 00:48:22;;;;;;;9.50;5.60;;;;;;;8.99;69.31;101188.59;5070406;28;20023;-80
2021/01/11 00:50:47;;;;;;;6.78;5.30;;;;;;;9.01;69.93;101193.78;5071429;28;20029;-81
2021/01/11 00:53:12;;;;;;;8.02;5.75;;;;;;;8.76;70.74;101184.47;5071211;28;20064;-80
2021/01/11 00:55:38;;;;;;;8.77;5.55;;;;;;;8.62;71.89;101190.38;5070389;28;20047;-80
2021/01/11 00:58:03;;;;;;;14.70;5.65;;;;;;;8.66;71.86;101185.84;5071648;28;20086;-80
2021/01/11 01:00:28;;;;;;;8.27;5.43;;;;;;;8.61;72.01;101186.06;5071792;28;20039;-80
2021/01/11 01:02:54;;;;;;;9.27;5.68;;;;;;;8.95;70.95;101179.19;5071627;28;20016;-80
2021/01/11 01:05:20;;;;;;;11.50;6.30;;;;;;;8.83;71.19;101182.44;5071439;28;20059;-80
2021/01/11 01:07:45;;;;;;;8.15;5.60;;;;;;;9.11;70.09;101180.13;5071181;28;20107;-80
2021/01/11 01:10:12;;;;;;;9.43;6.05;;;;;;;8.67;71.74;101162.22;5071403;28;20071;-80
2021/01/11 01:12:37;;;;;;;9.77;6.00;;;;;;;8.89;71.05;101167.25;5070186;28;20048;-80
2021/01/11 01:15:07;;;;;;;13.10;6.53;;;;;;;8.89;70.93;101153.31;5071480;28;20506;-80
2021/01/11 01:17:37;;;;;;;12.00;7.05;;;;;;;8.60;71.46;101152.94;5070080;28;20025;-80
2021/01/11 01:20:08;;;;;;;11.90;7.40;;;;;;;8.57;71.97;101153.09;5070237;28;20048;-81
2021/01/11 01:22:36;;;;;;;10.15;7.40;;;;;;;8.61;71.60;101149.41;5070135;28;20471;-80
2021/01/11 01:25:02;;;;;;;12.02;6.30;;;;;;;8.89;70.95;101153.31;5070017;28;20077;-80
2021/01/11 01:27:27;;;;;;;8.73;6.10;;;;;;;8.84;71.13;101145.66;5071633;28;20416;-80
2021/01/11 01:29:53;;;;;;;11.93;7.93;;;;;;;8.71;72.28;101153.28;5071266;28;20530;-80
2021/01/11 01:32:18;;;;;;;9.60;6.30;;;;;;;8.66;72.03;101146.56;5071282;28;20167;-80
2021/01/11 01:34:43;;;;;;;11.10;7.25;;;;;;;8.66;71.96;101150.03;5071235;28;20056;-80
2021/01/11 01:37:09;;;;;;;8.40;5.97;;;;;;;8.62;72.05;101143.25;5071441;28;20039;-80
2021/01/11 01:39:34;;;;;;;11.43;6.43;;;;;;;8.93;71.08;101157.47;5074923;28;20031;-80
2021/01/11 01:41:59;;;;;;;5.93;5.35;;;;;;;8.22;73.50;101152.09;5075072;28;20111;-80
2021/01/11 01:44:25;;;;;;;12.80;5.60;;;;;;;8.65;72.11;101153.59;5074913;28;20082;-80
2021/01/11 01:46:51;;;;;;;12.02;5.70;;;;;;;8.59;72.38;101158.25;5073602;28;20021;-78
2021/01/11 01:49:16;;;;;;;10.15;6.50;;;;;;;8.54;72.75;101153.22;5074804;28;20028;-78
2021/01/11 01:51:42;;;;;;;11.20;7.32;;;;;;;8.77;71.91;101144.28;5073997;28;20024;-80
2021/01/11 01:54:08;;;;;;;10.38;6.15;;;;;;;8.57;72.17;101147.88;5074366;28;20021;-78
2021/01/11 01:56:33;;;;;;;9.45;5.88;;;;;;;8.72;71.32;101152.34;5073922;28;20106;-80
2021/01/11 01:58:58;;;;;;;8.05;5.75;;;;;;;8.56;72.04;101155.78;5074895;28;20502;-79
2021/01/11 02:01:24;;;;;;;12.70;6.68;;;;;;;8.58;71.97;101146.09;5074647;28;20047;-79
2021/01/11 02:03:49;;;;;;;12.75;5.65;;;;;;;9.00;70.67;101155.41;5074593;28;20111;-79
2021/01/11 02:06:15;;;;;;;12.23;6.45;;;;;;;9.11;70.52;101143.47;5074267;28;20082;-79
2021/01/11 02:08:51;;;;;;;6.97;5.43;;;;;;;9.09;69.27;101153.16;5074451;28;20374;-79
2021/01/11 02:11:37;;;;;;;8.85;5.43;;;;;;;8.86;70.60;101150.84;5074631;28;20024;-79
2021/01/11 02:14:16;;;;;;;8.50;5.25;;;;;;;8.80;70.92;101151.97;5074639;28;20462;-79
2021/01/11 02:17:00;;;;;;;5.93;5.18;;;;;;;8.91;70.30;101151.47;5074086;28;20036;-79
2021/01/11 02:19:44;;;;;;;10.63;5.55;;;;;;;9.04;69.52;101146.47;5072992;28;20119;-79
2021/01/11 02:22:39;;;;;;;7.43;5.25;;;;;;;9.09;69.71;101150.56;5074319;28;20101;-78
2021/01/11 02:25:33;;;;;;;8.00;5.55;;;;;;;8.96;70.40;101144.22;5074201;28;20028;-81
2021/01/11 02:28:00;;;;;;;9.50;7.22;;;;;;;8.93;70.10;101150.47;5074427;28;20107;-80
2021/01/11 02:30:30;;;;;;;9.82;6.15;;;;;;;9.04;69.48;101151.69;5073990;28;20024;-78
2021/01/11 02:33:00;;;;;;;10.65;6.00;;;;;;;8.85;70.57;101146.53;5073986;28;20028;-82
2021/01/11 02:35:27;;;;;;;8.82;5.60;;;;;;;9.22;69.08;101150.81;5074240;28;20024;-79
2021/01/11 02:37:52;;;;;;;5.63;5.03;;;;;;;9.26;68.66;101144.47;5072710;28;20190;-78
2021/01/11 02:40:18;;;;;;;11.68;5.00;;;;;;;9.19;68.64;101143.06;5074068;28;20522;-80
2021/01/11 02:42:44;;;;;;;11.18;5.07;;;;;;;8.97;69.89;101138.06;5074071;28;20025;-80
2021/01/11 02:45:10;;;;;;;6.15;4.40;;;;;;;9.10;69.27;101125.19;5073664;28;20474;-81
2021/01/11 02:48:04;;;;;;;5.55;3.90;;;;;;;9.10;68.73;101123.44;5072771;28;20020;-80
2021/01/11 02:50:33;;;;;;;4.82;2.75;;;;;;;8.97;69.24;101132.81;5053807;28;20057;-81
2021/01/11 02:53:31;;;;;;;7.65;2.92;;;;;;;9.05;69.02;101121.97;5053722;28;20032;-80
2021/01/11 02:56:05;;;;;;;3.33;1.88;;;;;;;9.19;68.44;101116.03;5053628;28;20032;-80
2021/01/11 02:58:46;;;;;;;4.13;1.85;;;;;;;9.01;68.70;101108.19;5053672;28;20025;-80
2021/01/11 03:01:14;;;;;;;4.60;1.90;;;;;;;9.37;67.24;101112.47;5053449;28;20033;-80
2021/01/11 03:03:41;;;;;;;2.35;1.33;;;;;;;9.19;67.16;101108.19;5062063;28;20032;-80
2021/01/11 03:06:11;;;;;;;7.30;1.50;;;;;;;9.28;67.89;101103.31;5073467;28;20024;-80
2021/01/11 03:08:36;;;;;;;4.35;1.10;;;;;;;9.37;66.87;101112.47;5073508;28;20064;-81
2021/01/11 03:11:02;;;;;;;2.70;0.90;;;;;;;9.22;67.17;101113.25;5071824;28;20467;-80
2021/01/11 03:13:27;;;;;;;4.88;0.88;;;;;;;9.49;66.16;101103.94;5073585;28;20032;-80
2021/01/11 03:15:52;;;;;;;3.33;1.10;;;;;;;9.49;66.22;101096.09;5073204;28;20115;-80
2021/01/11 03:18:18;;;;;;;1.92;1.00;;;;;;;9.37;67.03;101099.34;5073138;28;20490;-80
2021/01/11 03:20:43;;;;;;;2.33;0.70;;;;;;;9.42;66.77;101096.50;5073240;28;20035;-80
2021/01/11 03:23:08;;;;;;;5.82;1.00;;;;;;;9.07;67.20;101094.75;5072315;28;20029;-80
2021/01/11 03:25:34;;;;;;;1.75;0.70;;;;;;;9.22;67.92;101097.53;5072799;28;20483;-80
2021/01/11 03:27:59;;;;;;;3.25;1.10;;;;;;;9.21;67.46;101098.47;5072813;28;20031;-80
2021/01/11 03:30:25;;;;;;;5.35;1.02;;;;;;;9.25;67.10;101086.91;5072905;28;20024;-80
2021/01/11 03:32:51;;;;;;;3.95;0.70;;;;;;;9.40;67.40;101086.09;5072822;28;20028;-80
2021/01/11 03:35:16;;;;;;;1.98;1.02;;;;;;;9.47;67.11;101086.63;5073036;28;20378;-80
2021/01/11 03:37:42;;;;;;;2.65;0.90;;;;;;;9.47;66.72;101082.22;5071516;28;20052;-80
2021/01/11 03:40:08;;;;;;;4.95;1.08;;;;;;;9.42;66.89;101079.00;5072573;28;20025;-80
2021/01/11 03:42:37;;;;;;;6.68;1.98;;;;;;;9.22;67.27;101074.81;5072431;28;20037;-80
2021/01/11 03:45:08;;;;;;;3.53;1.10;;;;;;;9.31;67.14;101071.69;5072552;28;20025;-80
2021/01/11 03:47:33;;;;;;;2.05;0.90;;;;;;;9.29;67.49;101065.69;5072605;28;20478;-80
2021/01/11 03:49:59;;;;;;;3.70;1.00;;;;;;;9.23;68.09;101067.78;5072300;28;20031;-80
2021/01/11 03:52:24;;;;;;;3.25;1.10;;;;;;;9.34;66.80;101062.84;5072527;28;20029;-80
2021/01/11 03:54:50;;;;;;;4.05;0.98;;;;;;;9.42;67.14;101055.41;5071999;28;20035;-80
2021/01/11 03:57:16;;;;;;;2.42;1.00;;;;;;;9.37;66.99;101054.81;5072427;28;20025;-80
2021/01/11 03:59:41;;;;;;;1.48;0.70;;;;;;;9.52;66.45;101054.00;5072019;28;20115;-79
2021/01/11 04:02:07;;;;;;;1.95;0.90;;;;;;;9.55;66.37;101052.97;5072262;28;20029;-79
2021/01/11 04:04:32;;;;;;;2.22;0.88;;;;;;;9.46;66.26;101061.34;5072204;28;20395;-80
2021/01/11 04:06:57;;;;;;;3.00;0.85;;;;;;;9.52;66.18;101054.00;5072274;28;20039;-79
2021/01/11 04:09:25;;;;;;;2.42;0.60;;;;;;;9.55;66.23;101047.75;5072259;28;20078;-79
2021/01/11 04:11:50;;;;;;;2.85;0.70;;;;;;;9.40;66.91;101046.78;5071543;28;20036;-79
2021/01/11 04:14:16;;;;;;;2.08;0.50;;;;;;;9.34;66.97;101041.88;5072281;28;20382;-79
2021/01/11 04:16:43;;;;;;;2.17;0.50;;;;;;;9.44;67.00;101029.97;5072145;28;20082;-79
2021/01/11 04:19:09;;;;;;;2.97;0.70;;;;;;;9.50;66.53;101039.28;5072118;28;20052;-79
2021/01/11 04:21:34;;;;;;;4.32;0.68;;;;;;;9.25;67.56;101029.25;5071999;28;20116;-79
2021/01/11 04:23:59;;;;;;;6.50;0.80;;;;;;;9.22;68.39;101030.25;5072332;28;20025;-79
2021/01/11 04:26:25;;;;;;;5.57;0.80;;;;;;;9.26;67.99;101028.31;5071970;28;20462;-79
2021/01/11 04:28:50;;;;;;;2.70;0.90;;;;;;;9.39;68.32;101021.50;5071986;28;20074;-79
2021/01/11 04:31:17;;;;;;;4.05;1.25;;;;;;;9.19;68.80;101017.31;5071695;28;20046;-79
2021/01/11 04:33:42;;;;;;;4.57;0.60;;;;;;;8.92;70.17;101027.44;5072042;28;20024;-79
2021/01/11 04:36:07;;;;;;;4.40;0.55;;;;;;;9.17;70.23;101015.72;5071835;28;20047;-79
2021/01/11 04:38:33;;;;;;;7.05;0.70;;;;;;;8.97;71.81;101012.34;5071907;28;20402;-79
2021/01/11 04:41:03;;;;;;;3.75;0.70;;;;;;;9.09;71.10;101016.09;5071886;28;20024;-80
2021/01/11 04:43:32;;;;;;;4.15;1.10;;;;;;;9.03;70.53;101004.16;5071910;28;20071;-79
2021/01/11 04:45:58;;;;;;;6.25;0.60;;;;;;;9.31;70.16;101003.56;5071770;28;20043;-80
2021/01/11 04:48:24;;;;;;;5.07;0.88;;;;;;;9.21;70.34;101001.53;5070478;28;20024;-79
2021/01/11 04:50:49;;;;;;;6.38;0.82;;;;;;;9.00;71.17;100991.22;5071522;28;20546;-79
2021/01/11 04:53:17;;;;;;;2.00;0.40;;;;;;;9.00;71.47;100983.34;5071298;28;20044;-79
2021/01/11 04:55:45;;;;;;;6.57;0.85;;;;;;;9.20;70.63;100984.09;5071941;28;20063;-79
2021/01/11 04:58:11;;;;;;;3.30;1.00;;;;;;;9.02;71.18;100989.38;5071945;28;20024;-79
2021/01/11 05:00:39;;;;;;;2.78;0.93;;;;;;;9.12;70.83;100987.97;5071870;28;20020;-79
2021/01/11 05:03:05;;;;;;;3.13;0.70;;;;;;;9.20;70.67;100982.34;5071689;28;20768;-79
2021/01/11 05:05:33;;;;;;;10.25;0.82;;;;;;;9.20;69.99;100973.59;5070500;28;20029;-79
2021/01/11 05:07:58;;;;;;;3.78;0.70;;;;;;;8.98;70.30;100979.97;5071354;28;20029;-79
2021/01/11 05:10:38;;;;;;;5.93;0.65;;;;;;;8.93;70.79;100972.38;5071636;28;20024;-79
2021/01/11 05:13:05;;;;;;;2.72;0.65;;;;;;;8.89;70.82;100964.75;5073724;28;20102;-79
2021/01/11 05:15:33;;;;;;;5.20;0.60;;;;;;;9.08;70.79;100965.50;5075798;28;20021;-79
2021/01/11 05:17:59;;;;;;;2.97;0.60;;;;;;;9.03;70.48;100967.50;5075792;28;20512;-79
2021/01/11 05:20:30;;;;;;;4.50;0.43;;;;;;;8.91;70.61;100970.75;5075640;28;20108;-80
2021/01/11 05:22:57;;;;;;;1.48;0.60;;;;;;;8.86;71.50;100970.13;5075756;28;20032;-80
2021/01/11 05:25:26;;;;;;;7.63;0.85;;;;;;;8.93;71.37;100972.38;5075399;28;20107;-79
2021/01/11 05:28:09;;;;;;;4.75;0.77;;;;;;;9.28;70.02;100966.19;5075381;28;20492;-79
2021/01/11 05:30:46;;;;;;;3.90;1.35;;;;;;;9.09;70.54;100971.56;5075482;28;20035;-79
2021/01/11 05:33:24;;;;;;;3.22;0.73;;;;;;;9.26;69.98;100962.78;5077457;28;20035;-79
2021/01/11 05:36:07;;;;;;;4.00;0.68;;;;;;;9.04;70.53;100958.69;5074071;28;20085;-79
2021/01/11 05:38:37;;;;;;;11.60;0.85;;;;;;;9.22;69.55;100948.16;5075015;28;20039;-80
2021/01/11 05:41:20;;;;;;;5.45;0.70;;;;;;;9.27;69.33;100954.03;5074872;28;20103;-80
2021/01/11 05:44:06;;;;;;;6.40;0.65;;;;;;;9.15;68.72;100941.59;5075022;28;20135;-79
2021/01/11 05:46:31;;;;;;;8.82;1.00;;;;;;;9.22;68.86;100938.56;5075003;28;20086;-80
2021/01/11 05:49:02;;;;;;;9.15;1.83;;;;;;;9.16;69.45;100932.78;5075113;28;20104;-80
2021/01/11 05:51:29;;;;;;;4.43;0.70;;;;;;;8.94;69.85;100941.78;5074609;28;20502;-79
2021/01/11 05:53:56;;;;;;;11.65;2.05;;;;;;;9.05;69.87;100939.44;5074642;28;20033;-79
2021/01/11 05:56:22;;;;;;;5.90;1.17;;;;;;;8.98;69.89;100940.69;5074309;28;20024;-78
2021/01/11 05:59:08;;;;;;;10.45;1.52;;;;;;;9.06;69.04;100949.00;5075446;28;20024;-79
2021/01/11 06:01:35;;;;;;;11.20;1.40;;;;;;;9.22;68.42;100945.53;5075164;28;20078;-80
2021/01/11 06:04:01;;;;;;;7.90;0.98;;;;;;;9.19;68.83;100935.25;5074922;28;20112;-79
2021/01/11 06:06:26;;;;;;;3.88;1.17;;;;;;;9.38;67.84;100940.31;5074406;28;20033;-80
2021/01/11 06:08:53;;;;;;;9.45;1.05;;;;;;;9.40;67.83;100936.72;5073272;28;20482;-80
2021/01/11 06:11:25;;;;;;;7.20;1.17;;;;;;;9.27;67.99;100925.19;5071913;28;20028;-79
2021/01/11 06:13:51;;;;;;;;;;;;;;;9.22;68.02;100933.31;5088732;28;20024;-79
2021/01/11 06:16:18;;;;;;;4.78;0.90;;;;;;;9.45;67.24;100921.56;5083849;28;19912;-79
2021/01/11 06:18:45;;;;;;;7.00;1.00;;;;;;;9.20;67.60;100934.31;5074148;28;20032;-79
2021/01/11 06:21:11;;;;;;;6.85;0.90;;;;;;;9.25;66.99;100924.44;5073040;28;20029;-78
2021/01/11 06:23:38;;;;;;;4.35;1.05;;;;;;;9.29;67.22;100923.34;5074597;28;20024;-78
2021/01/11 06:26:26;;;;;;;8.00;1.63;;;;;;;8.92;66.39;100922.69;5074145;28;20024;-79
2021/01/11 06:28:55;;;;;;;8.77;2.35;;;;;;;8.90;67.20;100924.53;5074022;28;20431;-79
2021/01/11 06:31:34;;;;;;;7.65;0.98;;;;;;;8.97;66.19;100931.16;5085379;28;20401;-79
2021/01/11 06:33:59;;;;;;;4.03;1.20;;;;;;;8.98;65.16;100922.34;5069339;28;20028;-81
2021/01/11 06:36:30;;;;;;;7.93;1.80;;;;;;;9.03;66.12;100920.34;5081333;28;20069;-78
2021/01/11 06:38:56;;;;;;;6.78;0.80;;;;;;;9.08;65.29;100918.34;5092827;28;20032;-81
2021/01/11 06:41:27;;;;;;;13.95;1.02;;;;;;;9.02;65.99;100921.25;5085063;28;20469;-80
2021/01/11 06:44:01;;;;;;;8.95;1.70;;;;;;;9.00;65.88;100914.41;5073343;28;20033;-80
2021/01/11 06:46:29;;;;;;;5.93;0.98;;;;;;;8.89;66.26;100922.84;5074004;28;20029;-80
2021/01/11 06:49:03;;;;;;;3.28;0.63;;;;;;;9.20;65.87;100922.06;5073835;28;20032;-80
2021/01/11 06:51:39;;;;;;;13.20;1.20;;;;;;;8.99;65.80;100920.59;5073602;28;20032;-79
2021/01/11 06:54:11;;;;;;;4.50;1.20;;;;;;;9.09;65.43;100920.00;5073570;28;20103;-79
2021/01/11 06:56:37;;;;;;;12.60;1.50;;;;;;;8.83;66.90;100918.78;5073614;28;20028;-78
2021/01/11 06:59:07;;;;;;;4.05;0.98;;;;;;;8.91;67.11;100915.75;5073262;28;20024;-78
2021/01/11 07:01:37;;;;;;;2.58;0.85;;;;;;;9.37;65.66;100913.28;5072205;28;20025;-78
2021/01/11 07:04:02;;;;;;;5.45;0.98;;;;;;;9.44;64.77;100909.41;5073506;28;20028;-78
2021/01/11 07:06:39;;;;;;;6.97;1.25;;;;;;;9.44;65.04;100912.03;5073443;28;20024;-79
2021/01/11 07:09:11;;;;;;;2.70;0.80;;;;;;;9.47;65.10;100909.22;5073546;28;20462;-79
2021/01/11 07:11:39;;;;;;;6.68;1.10;;;;;;;9.39;65.50;100913.19;5073207;28;20043;-79
2021/01/11 07:14:05;;;;;;;4.40;1.00;;;;;;;9.49;65.24;100925.69;5073693;28;20063;-79
2021/01/11 07:16:52;;;;;;;8.18;1.08;;;;;;;9.28;66.25;100917.25;5072074;28;20482;-79
2021/01/11 07:19:36;;;;;;;6.25;1.48;;;;;;;9.35;65.85;100919.53;5073308;28;20472;-79
2021/01/11 07:22:09;;;;;;;8.73;1.67;;;;;;;9.36;64.97;100911.59;5073237;28;20086;-80
2021/01/11 07:24:37;;;;;;;5.50;1.38;;;;;;;9.56;65.50;100922.75;5073595;28;20493;-79
2021/01/11 07:27:02;;;;;;;9.55;1.40;;;;;;;9.40;65.44;100915.75;5072781;28;20021;-79
2021/01/11 07:29:28;;;;;;;7.18;1.33;;;;;;;9.28;65.90;100924.25;5072956;28;20431;-79
2021/01/11 07:31:53;;;;;;;7.97;1.98;;;;;;;9.15;66.88;100924.09;5073337;28;20028;-79
2021/01/11 07:34:21;;;;;;;5.47;1.17;;;;;;;9.37;66.31;100922.91;5072644;28;20037;-79
2021/01/11 07:36:49;;;;;;;10.35;1.20;;;;;;;9.35;65.92;100920.38;5072480;28;20032;-79
2021/01/11 07:39:29;;;;;;;9.55;1.08;;;;;;;9.46;65.46;100925.88;5072878;28;20301;-79
2021/01/11 07:41:58;;;;;;;8.32;1.33;;;;;;;9.58;65.51;100931.38;5072339;28;20020;-79
2021/01/11 07:44:25;;;;;;;7.50;1.23;;;;;;;9.15;67.03;100933.72;5072386;28;20055;-79
2021/01/11 07:47:08;;;;;;;7.75;1.40;;;;;;;9.12;67.27;100932.97;5072873;28;20020;-79
2021/01/11 07:49:38;;;;;;;10.52;1.40;;;;;;;9.26;66.08;100936.59;5072277;28;20021;-79
2021/01/11 07:52:04;;;;;;;7.20;1.13;;;;;;;9.30;66.41;100945.97;5072467;28;20044;-79
2021/01/11 07:54:30;;;;;;;11.70;1.33;;;;;;;9.21;66.80;100942.09;5072543;28;20024;-79
2021/01/11 07:56:56;;;;;;;9.38;1.38;;;;;;;9.36;66.30;100948.28;5072404;28;20029;-79
2021/01/11 07:59:22;;;;;;;9.65;1.55;;;;;;;9.09;66.83;100946.22;5072476;28;20157;-79
2021/01/11 08:01:49;;;;;;;8.55;0.90;;;;;;;9.27;66.51;100954.03;5072364;28;20035;-79
2021/01/11 08:04:16;;;;;;;6.85;1.25;;;;;;;9.45;65.77;100950.41;5072149;28;20016;-79
2021/01/11 08:06:55;;;;;;;11.38;1.52;;;;;;;9.22;66.69;100959.53;5070323;28;20020;-79
2021/01/11 08:09:26;;;;;;;13.00;1.95;;;;;;;9.28;65.42;100945.22;5072197;28;20028;-79
2021/01/11 08:12:05;;;;;;;12.15;1.50;;;;;;;9.47;65.86;100945.91;5072038;28;20028;-80
2021/01/11 08:14:31;;;;;;;5.05;1.10;;;;;;;9.41;66.27;100955.91;5071952;28;20470;-79
2021/01/11 08:16:58;;;;;;;8.32;1.30;;;;;;;9.46;65.91;100949.47;5072103;28;20025;-79
2021/01/11 08:19:23;;;;;;;10.65;1.45;;;;;;;9.20;66.58;100950.03;5070610;28;20032;-79
2021/01/11 08:21:57;;;;;;;9.88;1.30;;;;;;;9.17;66.62;100947.59;5071773;28;20032;-79
2021/01/11 08:24:22;;;;;;;7.90;1.35;;;;;;;9.00;66.69;100948.47;5072894;28;20025;-79
2021/01/11 08:26:50;;;;;;;4.72;1.13;;;;;;;9.33;66.39;100954.53;5071906;28;20501;-79
2021/01/11 08:29:16;;;;;;;10.38;1.20;;;;;;;9.39;65.86;100944.66;5071544;28;20028;-80
2021/01/11 08:31:45;;;;;;;7.53;1.83;;;;;;;9.61;64.69;100931.22;5071883;28;20028;-79
2021/01/11 08:34:11;;;;;;;7.00;1.52;;;;;;;9.56;64.71;100931.47;5071847;28;20038;-79
2021/01/11 08:36:37;;;;;;;10.05;1.35;;;;;;;9.47;65.57;100935.44;5071848;28;20027;-79
2021/01/11 08:39:16;;;;;;;6.68;1.48;;;;;;;9.78;64.74;100933.75;5071859;28;20024;-80
2021/01/11 08:41:54;;;;;;;7.07;1.38;;;;;;;9.64;64.33;100933.66;5071861;28;20039;-79
2021/01/11 08:44:39;;;;;;;7.43;1.20;;;;;;;9.95;64.36;100926.69;5071404;28;20028;-79
2021/01/11 08:47:08;;;;;;;9.63;1.42;;;;;;;9.76;64.49;100932.16;5071134;28;20479;-79
2021/01/11 08:49:35;;;;;;;6.20;1.92;;;;;;;9.76;64.93;100943.47;5071571;28;20047;-79
2021/01/11 08:52:08;;;;;;;8.35;1.02;;;;;;;9.66;64.45;100939.69;5071491;28;20116;-79
2021/01/11 08:54:34;;;;;;;8.32;1.95;;;;;;;10.09;64.19;100942.47;5070916;28;20033;-79
2021/01/11 08:57:12;;;;;;;8.25;1.00;;;;;;;9.96;64.43;100936.25;5071682;28;20036;-79
2021/01/11 08:59:46;;;;;;;8.35;1.23;;;;;;;9.90;65.13;100935.66;5071933;28;20031;-80
2021/01/11 09:02:21;;;;;;;6.82;1.30;;;;;;;10.12;63.58;100932.66;5071700;28;20024;-80
2021/01/11 09:04:46;;;;;;;8.95;1.50;;;;;;;10.10;63.68;100920.56;5069596;28;20028;-80
2021/01/11 09:07:12;;;;;;;7.38;1.45;;;;;;;9.92;64.42;100925.09;5069658;28;20103;-79
2021/01/11 09:09:37;;;;;;;12.38;1.67;;;;;;;9.68;65.44;100927.31;5068712;28;20025;-80
2021/01/11 09:12:07;;;;;;;9.23;2.05;;;;;;;9.99;65.48;100920.31;5070220;28;20032;-79
2021/01/11 09:14:34;;;;;;;7.80;1.27;;;;;;;10.20;65.25;100924.34;5070886;28;20090;-80
2021/01/11 09:17:04;;;;;;;13.55;1.40;;;;;;;10.34;64.00;100920.09;5070773;28;20475;-79
2021/01/11 09:19:31;;;;;;;10.02;1.05;;;;;;;10.52;63.83;100925.13;5070569;28;20105;-79
2021/01/11 09:21:58;;;;;;;19.58;2.10;;;;;;;10.43;64.73;100917.78;5071251;28;20024;-80
2021/01/11 09:24:24;;;;;;;5.72;1.42;;;;;;;10.59;63.87;100920.34;5070594;28;20033;-79
2021/01/11 09:26:51;;;;;;;7.85;1.35;;;;;;;10.32;65.18;100921.03;5070586;28;20382;-79
2021/01/11 09:29:17;;;;;;;8.02;1.30;;;;;;;10.45;65.67;100922.94;5069252;28;20036;-80
2021/01/11 09:31:42;;;;;;;13.95;1.20;;;;;;;10.48;65.52;100928.84;5070597;28;20028;-80
2021/01/11 09:34:07;;;;;;;9.52;1.95;;;;;;;10.33;65.81;100921.88;5070519;28;20162;-80
2021/01/11 09:36:38;;;;;;;11.38;2.10;;;;;;;10.20;67.39;100928.75;5071475;28;20070;-81
2021/01/11 09:39:06;;;;;;;9.55;1.20;;;;;;;10.36;67.15;100929.56;5070233;28;20021;-79
2021/01/11 09:41:31;;;;;;;14.68;1.58;;;;;;;10.34;66.81;100920.09;5070013;28;20150;-79
2021/01/11 09:43:57;;;;;;;11.65;1.88;;;;;;;9.97;68.50;100935.31;5075411;28;20103;-78
2021/01/11 09:46:22;;;;;;;25.35;3.88;;;;;;;9.76;69.56;100922.50;5072023;28;20043;-79
2021/01/11 09:48:48;;;;;;;15.73;2.33;;;;;;;9.89;69.39;100923.50;5077525;28;20378;-79
2021/01/11 09:51:13;;;;;;;13.25;1.98;;;;;;;10.01;68.99;100928.94;5070269;28;20043;-79
2021/01/11 09:53:39;;;;;;;13.80;2.63;;;;;;;9.68;70.55;100927.31;5069001;28;20550;-79
2021/01/11 09:56:04;;;;;;;23.63;1.98;;;;;;;9.77;70.89;100931.19;5070459;28;20074;-78
2021/01/11 09:58:30;;;;;;;18.20;2.75;;;;;;;9.65;71.45;100928.31;5071255;28;20024;-79
2021/01/11 10:00:55;;;;;;;18.83;2.17;;;;;;;10.15;70.42;100933.41;5073963;28;20024;-79
2021/01/11 10:03:23;;;;;;;15.48;1.95;;;;;;;10.01;71.29;100929.81;5073776;28;20028;-78
2021/01/11 10:05:56;;;;;;;14.10;1.85;;;;;;;10.24;71.02;100931.09;5072736;28;20020;-80
2021/01/11 10:08:21;;;;;;;9.75;1.85;;;;;;;9.97;72.05;100924.81;5066144;28;20029;-86
2021/01/11 10:10:47;;;;;;;8.93;1.63;;;;;;;9.73;73.68;100930.50;5073472;28;20044;-78
2021/01/11 10:13:12;;;;;;;11.30;1.85;;;;;;;9.87;73.20;100922.75;5071791;28;20032;-80
2021/01/11 10:15:38;;;;;;;15.77;2.03;;;;;;;10.11;73.01;100930.09;5073165;28;20552;-78
2021/01/11 10:18:03;;;;;;;7.85;2.45;;;;;;;10.19;72.66;100938.41;5073858;28;20435;-79
2021/01/11 10:20:28;;;;;;;7.28;1.08;;;;;;;10.07;73.41;100929.47;5072291;28;20032;-79
2021/01/11 10:22:54;;;;;;;2.15;0.63;;;;;;;9.91;74.00;100931.25;5073168;28;20043;-78
2021/01/11 10:25:19;;;;;;;8.55;1.08;;;;;;;9.70;75.01;100946.44;5072977;28;20115;-77
2021/01/11 10:27:45;;;;;;;1.20;0.60;;;;;;;10.10;74.20;100942.38;5071888;28;20077;-79
2021/01/11 10:30:11;;;;;;;6.22;0.60;;;;;;;10.19;73.04;100941.03;5072688;28;20063;-77
2021/01/11 10:32:36;;;;;;;4.47;0.70;;;;;;;10.25;73.43;100945.94;5069062;28;20036;-78
2021/01/11 10:35:02;;;;;;;1.98;0.50;;;;;;;10.07;74.21;100941.72;5068535;28;21495;-81
2021/01/11 10:37:27;;;;;;;5.55;0.90;;;;;;;10.18;72.95;100949.00;5070464;28;20082;-79
2021/01/11 10:39:53;;;;;;;4.63;1.02;;;;;;;9.95;73.33;100935.38;5069628;28;20718;-79
2021/01/11 10:42:18;;;;;;;7.85;1.70;;;;;;;9.90;72.48;100942.69;5073552;28;20103;-79
2021/01/11 10:44:43;;;;;;;7.95;1.10;;;;;;;10.00;72.41;100932.53;5069101;28;20104;-79
2021/01/11 10:47:09;;;;;;;12.18;1.10;;;;;;;10.18;71.52;100931.47;5070873;28;20031;-79
2021/01/11 10:49:34;;;;;;;8.02;1.23;;;;;;;10.37;70.24;100917.28;5063119;28;20059;-79
2021/01/11 10:52:00;;;;;;;8.98;1.27;;;;;;;10.69;69.52;100921.47;5044385;28;20049;-78
2021/01/11 10:54:26;;;;;;;5.57;1.00;;;;;;;10.43;69.65;100917.78;5052388;28;20033;-80
2021/01/11 10:56:52;;;;;;;4.68;1.08;;;;;;;10.04;70.82;100926.16;5052304;28;20025;-81
2021/01/11 10:59:19;;;;;;;8.63;1.55;;;;;;;10.37;69.73;100909.41;5051370;28;20024;-80
2021/01/11 11:01:45;;;;;;;6.95;1.15;;;;;;;10.35;69.27;100903.41;5045472;28;20356;-78
2021/01/11 11:04:14;;;;;;;6.50;1.05;;;;;;;10.47;68.73;100889.56;5052204;28;20033;-79
2021/01/11 11:06:39;;;;;;;6.72;0.88;;;;;;;10.62;68.51;100899.13;5051645;28;20112;-80
2021/01/11 11:09:04;;;;;;;13.18;1.13;;;;;;;10.74;67.92;100886.19;5052063;28;20598;-80
2021/01/11 11:11:30;;;;;;;5.57;0.95;;;;;;;10.35;69.17;100879.78;5040929;28;20033;-80
2021/01/11 11:13:56;;;;;;;7.43;1.20;;;;;;;10.31;69.59;100882.59;5051868;28;20017;-81
2021/01/11 11:16:22;;;;;;;7.10;1.00;;;;;;;10.33;69.02;100877.28;5052219;28;20033;-79
2021/01/11 11:18:47;;;;;;;8.00;1.30;;;;;;;10.35;69.11;100866.66;5051532;28;20052;-79
2021/01/11 11:21:13;;;;;;;10.90;1.63;;;;;;;10.54;68.21;100848.88;5038523;28;20037;-80
2021/01/11 11:23:39;;;;;;;13.90;2.58;;;;;;;10.71;67.53;100840.81;5051660;28;20111;-79
2021/01/11 11:26:06;;;;;;;13.20;1.92;;;;;;;10.66;68.57;100866.53;5051363;28;20033;-81
2021/01/11 11:28:35;;;;;;;10.73;1.75;;;;;;;10.48;68.55;100873.69;5052592;28;20514;-80
2021/01/11 11:31:02;;;;;;;10.45;1.90;;;;;;;10.05;69.99;100859.63;5038341;28;20029;-79
2021/01/11 11:33:27;;;;;;;13.45;2.25;;;;;;;10.24;69.87;100852.38;5049112;28;20029;-80
2021/01/11 11:35:53;;;;;;;9.52;1.23;;;;;;;10.62;68.33;100856.28;5050506;28;20552;-79